Archival Weather

Westchester County

White Plains, New York (KHPN)

Report from: Friday, February 23, 2024 2:56 PM EST
Current time: Wednesday, May 29, 2024 7:52 PM EDT

Current weather – Weather history – Daily summaries
Weather forecast

Temperature7.2°C (45.0°F)
Wind chill5.5°C (41.8°F)
Dew point3.3°C (37.9°F)
Winds 5 kts (2.6 m/s, 5.8 mph) North (350°)
Visibility10 mi. (16.1 km)
Clouds Scattered clouds 5,000 ft. (1,524 m)
Ceiling: Overcast 6,000 ft. (1,829 m)
Altimeter29.44 in.Hg (997 mB)
Relative humidity76 %
Density altitude-275 ft. (-84 m)
Sea-level pressure99.7 kPa (997 mB, 29.45 in.Hg)
Remarks Automated weather observing station with precipitation discriminator
Flight conditions Visual Meteorological Conditions
Raw dataKHPN 231956Z 35005KT 10SM SCT050 OVC060 07/03 A2944 RMK AO2 SLP972 T00720033
An error has occurred. This application may no longer respond until reloaded. Reload 🗙